Het weer levert geen direct gevaar op.    Er zijn geen waarschuwingen afgegeven.


Onweer radar Meer informatie blitzortung!


Regen radar Meer informatie rain snow radar


Bezoek onze andere website:

Template documentation
and downloads

And another site



METAR rapporten vliegvelden

   
EBAW - Antwerp
Gewijzigd: 15-01-2019 23:50
Wat regen mogelijk, Nevel, Bewolking  
Wat regen mogelijk, Nevel, Bewolking  
   Wind: ZW 20.4 km/h
Wind: ZW 20.4 km/h
Temperatuur: 7°C
Voelt als: 3°C
Dauwpunt: 6°C
Vochtigheid: 93%
Barometer: 1016 hPa
Bewolking: Bewolking
Zicht: 4 km
Bewolking: Grotendeels bewolkt 200 ft,
Bewolking 400 ft
EBAW 152250Z AUTO 23011KT 3500 -RA BR BKN002/// OVC004/// 07/06 Q1016
EBLG - Li├Ęge
Gewijzigd: 15-01-2019 23:50
Grotendeels bewolkt  
Grotendeels bewolkt  
   Wind: ZW 22.2 km/h
Wind: ZW 22.2 km/h
Temperatuur: 5°C
Voelt als: 1°C
Dauwpunt: 3°C
Vochtigheid: 87%
Barometer: 1017 hPa
Bewolking: Grotendeels bewolkt
Zicht: meer dan 10 km
Bewolking: Licht bewolkt 900 ft,
Gedeeltelijk bewolkt 1800 ft,
Grotendeels bewolkt 2900 ft
EBLG 152250Z 22012KT 9999 FEW009 SCT018 BKN029 05/03 Q1017 NOSIG
EBCV - Mons/Bergen
Gewijzigd: 15-01-2019 23:55
Bewolking  
Bewolking  
   Wind: ZW 20.4 km/h
Wind: ZW 20.4 km/h
Temperatuur: 6°C
Voelt als: 2°C
Dauwpunt: 4°C
Vochtigheid: 87%
Barometer: 1017 hPa
Bewolking: Bewolking
Zicht: meer dan 10 km
Bewolking: Bewolking 2000 ft
EBCV 152255Z AUTO 22011KT 9999 OVC020/// 06/04 Q1017 WHT
EHBK - Maastricht
Gewijzigd: 15-01-2019 23:55
Bewolking  
Bewolking  
   Wind: ZW 27.8 km/h
Wind: ZW 27.8 km/h
Temperatuur: 6°C
Voelt als: 2°C
Dauwpunt: 4°C
Vochtigheid: 87%
Barometer: 1016 hPa
Bewolking: Bewolking
Zicht: meer dan 10 km
Bewolking: Gedeeltelijk bewolkt 900 ft,
Bewolking 1000 ft
EHBK 152255Z AUTO 23015KT 9999 SCT009 OVC010 06/04 Q1016 REDZ
ELLX - Luxemburg
Gewijzigd: 15-01-2019 23:50
Grotendeels bewolkt  
Grotendeels bewolkt  
   Wind: ZW 14.8 km/h
Wind: ZW 14.8 km/h
Temperatuur: 4°C
Voelt als: 1°C
Dauwpunt: 2°C
Vochtigheid: 87%
Barometer: 1018 hPa
Bewolking: Grotendeels bewolkt
Zicht: meer dan 10 km
Bewolking: Grotendeels bewolkt 2600 ft
ELLX 152250Z 23008KT 9999 BKN026 04/02 Q1018 NOSIG
EBOS - Oostende
Gewijzigd: 15-01-2019 23:50
Grotendeels bewolkt  
Grotendeels bewolkt  
   Wind: ZZW 18.5 km/h
Wind: ZZW 18.5 km/h
Temperatuur: 7°C
Voelt als: 4°C
Dauwpunt: 5°C
Vochtigheid: 87%
Barometer: 1016 hPa
Bewolking: Grotendeels bewolkt
Zicht: 9 km
Bewolking: Gedeeltelijk bewolkt 700 ft,
Grotendeels bewolkt 1400 ft
EBOS 152250Z 21010KT 9000 SCT007 BKN014 07/05 Q1016 TEMPO BKN008

Script ontwikkeld door  Saratoga-weather.org Aangepast voor de template door  Weerstation Leuven

U vindt ons ook hier:

Het Weer Aktueel

European Weather Network

Weather Underground

Benelux Weer Netwerk

Citizen Weather Observer Program (CWOP)

Apparatuur in gebruik:

Weerstation
Davis VP2

Weerprogramma
Weather Display

Weercomputer
My Computer

Webleverancier
WeservIT

Davis VP2

Weather Display

My Computer

WeservIT